createdAt,value
2022-08-03T00:01:25.209Z,101162.94
2022-08-03T00:03:56.549Z,101180.56
2022-08-03T00:06:22.982Z,101143.16
2022-08-03T00:08:49.355Z,101217.19
2022-08-03T00:11:15.755Z,101263.53
2022-08-03T00:13:42.161Z,101107.44
2022-08-03T00:16:10.574Z,101205.72
2022-08-03T00:18:37.555Z,101188.81
2022-08-03T00:21:04.423Z,101114.91
2022-08-03T00:23:51.753Z,101246.22
2022-08-03T00:26:17.647Z,101157.69
2022-08-03T00:28:44.108Z,101246.34
2022-08-03T00:31:13.599Z,101213.22
2022-08-03T00:33:58.708Z,101215.16
2022-08-03T00:36:28.197Z,101232.34
2022-08-03T00:38:56.199Z,101177.75
2022-08-03T00:41:22.894Z,101236.72
2022-08-03T00:43:49.473Z,101042.47
2022-08-03T00:46:21.062Z,101183.56
2022-08-03T00:48:55.972Z,101233.84
2022-08-03T00:51:22.890Z,101217.56
2022-08-03T00:53:50.215Z,101229.88
2022-08-03T00:56:20.501Z,101233.03
2022-08-03T00:58:47.291Z,101227.59
2022-08-03T01:01:15.138Z,101228.06
2022-08-03T01:03:41.858Z,101241.13
2022-08-03T01:06:18.509Z,101220.94
2022-08-03T01:08:52.417Z,101215.75
2022-08-03T01:12:01.192Z,101193.97
2022-08-03T01:14:41.480Z,101136.44
2022-08-03T01:17:19.388Z,101214.31
2022-08-03T01:19:48.770Z,101211.63
2022-08-03T01:22:40.262Z,101143.84
2022-08-03T01:25:20.861Z,101210.56
2022-08-03T01:28:41.406Z,101207.16
2022-08-03T01:31:11.708Z,101200.16
2022-08-03T01:33:46.477Z,101200.88
2022-08-03T01:36:15.970Z,101202.91
2022-08-03T01:38:48.181Z,101149.00
2022-08-03T01:41:20.126Z,101140.91
2022-08-03T01:44:26.643Z,101200.84
2022-08-03T01:46:38.326Z,101179.84
2022-08-03T01:49:09.441Z,101210.50
2022-08-03T01:52:03.550Z,101170.66
2022-08-03T01:54:26.369Z,101139.09
2022-08-03T01:56:58.918Z,101109.97
2022-08-03T01:59:28.906Z,101136.56
2022-08-03T02:02:28.468Z,101110.81
2022-08-03T02:04:46.990Z,101039.63
2022-08-03T02:07:14.970Z,101104.16
2022-08-03T02:09:45.030Z,101144.75
2022-08-03T02:12:14.112Z,101165.94
2022-08-03T02:14:43.224Z,100971.84
2022-08-03T02:17:11.061Z,101187.19
2022-08-03T02:19:38.483Z,101180.19
2022-08-03T02:22:08.348Z,101112.38
2022-08-03T02:24:34.807Z,101152.41
2022-08-03T02:27:04.073Z,101075.72
2022-08-03T02:29:39.054Z,101076.81
2022-08-03T02:32:13.862Z,101031.97
2022-08-03T02:34:44.209Z,101179.22
2022-08-03T02:37:12.875Z,101147.66
2022-08-03T02:39:42.293Z,101147.06
2022-08-03T02:42:12.771Z,101164.38
2022-08-03T02:44:41.495Z,101039.72
2022-08-03T02:47:10.856Z,101152.63
2022-08-03T02:49:51.675Z,101125.16
2022-08-03T02:52:24.226Z,101145.72
2022-08-03T02:54:54.842Z,101110.59
2022-08-03T02:57:22.799Z,101171.28
2022-08-03T02:59:50.605Z,101161.66
2022-08-03T03:02:18.432Z,101161.88
2022-08-03T03:04:59.689Z,101159.31
2022-08-03T03:07:37.258Z,101164.78
2022-08-03T03:10:21.322Z,101102.34
2022-08-03T03:12:50.229Z,101157.97
2022-08-03T03:15:16.777Z,101158.22
2022-08-03T03:17:44.181Z,101164.84
2022-08-03T03:20:11.982Z,100978.28
2022-08-03T03:22:40.063Z,101093.00
2022-08-03T03:25:10.265Z,101107.00
2022-08-03T03:27:37.027Z,100965.66
2022-08-03T03:30:05.339Z,101096.59
2022-08-03T03:32:32.105Z,101105.06
2022-08-03T03:34:59.697Z,101076.06
2022-08-03T03:37:29.121Z,101119.22
2022-08-03T03:39:55.729Z,101081.81
2022-08-03T03:42:22.720Z,101162.25
2022-08-03T03:44:49.325Z,101143.22
2022-08-03T03:47:15.881Z,101133.53
2022-08-03T03:49:43.985Z,101165.66
2022-08-03T03:52:10.714Z,101108.22
2022-08-03T03:54:45.165Z,101162.28
2022-08-03T03:57:12.918Z,101136.50
2022-08-03T03:59:41.548Z,101143.25
2022-08-03T04:02:09.210Z,101047.19
2022-08-03T04:04:55.594Z,101169.97
2022-08-03T04:07:43.067Z,100977.47
2022-08-03T04:10:45.669Z,101155.88
2022-08-03T04:13:15.088Z,101036.69
2022-08-03T04:15:42.061Z,101084.34
2022-08-03T04:18:13.681Z,101101.13
2022-08-03T04:20:44.534Z,101139.34
2022-08-03T04:23:15.941Z,101134.75
2022-08-03T04:25:43.957Z,101066.88
2022-08-03T04:28:31.276Z,101090.16
2022-08-03T04:30:59.456Z,101102.44
2022-08-03T04:33:29.585Z,100999.88
2022-08-03T04:36:02.249Z,101052.50
2022-08-03T04:38:32.823Z,101041.91
2022-08-03T04:41:00.799Z,100975.91
2022-08-03T04:43:28.125Z,101078.19
2022-08-03T04:45:56.188Z,101096.63
2022-08-03T04:48:22.783Z,100996.34
2022-08-03T04:50:49.264Z,101097.91
2022-08-03T04:53:17.714Z,101045.94
2022-08-03T04:55:44.693Z,101037.88
2022-08-03T04:58:12.494Z,101041.88
2022-08-03T05:00:41.889Z,101026.47
2022-08-03T05:03:19.526Z,101084.75
2022-08-03T05:06:01.604Z,101031.91
2022-08-03T05:08:36.914Z,101085.59
2022-08-03T05:11:18.261Z,101090.56
2022-08-03T05:13:45.471Z,101033.09
2022-08-03T05:16:12.400Z,101084.56
2022-08-03T05:18:38.788Z,101080.06
2022-08-03T05:21:05.353Z,101019.03
2022-08-03T05:23:34.698Z,101027.63
2022-08-03T05:26:01.117Z,101029.59
2022-08-03T05:28:27.729Z,101068.94
2022-08-03T05:30:54.110Z,101070.25
2022-08-03T05:33:20.523Z,101041.59
2022-08-03T05:36:02.561Z,101097.66
2022-08-03T05:38:35.093Z,101099.66
2022-08-03T05:41:21.215Z,101006.97
2022-08-03T05:43:53.879Z,101057.06
2022-08-03T05:46:21.277Z,101009.16
2022-08-03T05:48:47.879Z,101066.91
2022-08-03T05:51:14.311Z,101072.34
2022-08-03T05:53:42.832Z,101082.03
2022-08-03T05:56:13.583Z,101084.00
2022-08-03T05:58:41.835Z,101064.16
2022-08-03T06:01:08.340Z,101044.91
2022-08-03T06:03:34.784Z,101055.81
2022-08-03T06:06:03.911Z,101052.34
2022-08-03T06:08:30.717Z,101081.75
2022-08-03T06:10:57.132Z,101069.78
2022-08-03T06:13:23.559Z,101059.22
2022-08-03T06:15:49.992Z,101104.69
2022-08-03T06:18:16.345Z,101111.59
2022-08-03T06:20:42.804Z,101141.41
2022-08-03T06:23:15.983Z,101120.63
2022-08-03T06:25:44.093Z,101104.00
2022-08-03T06:28:19.125Z,101078.22
2022-08-03T06:30:55.715Z,101149.56
2022-08-03T06:33:26.178Z,101026.66
2022-08-03T06:36:12.528Z,101092.94
2022-08-03T06:38:38.945Z,101133.84
2022-08-03T06:41:05.308Z,101071.88
2022-08-03T06:43:35.863Z,101103.56
2022-08-03T06:46:02.544Z,101099.56
2022-08-03T06:48:28.946Z,101153.44
2022-08-03T06:50:55.365Z,101094.50
2022-08-03T06:53:22.333Z,101112.84
2022-08-03T06:55:53.920Z,101070.38
2022-08-03T06:58:21.234Z,101132.72
2022-08-03T07:00:47.959Z,101124.00
2022-08-03T07:03:15.026Z,101111.41
2022-08-03T07:05:42.307Z,101130.06
2022-08-03T07:08:08.839Z,101096.13
2022-08-03T07:10:35.314Z,101059.16
2022-08-03T07:13:01.714Z,101143.50
2022-08-03T07:15:38.341Z,101102.88
2022-08-03T07:18:14.604Z,101092.28
2022-08-03T07:20:41.281Z,101040.91
2022-08-03T07:23:07.866Z,101072.97
2022-08-03T07:25:34.283Z,101102.59
2022-08-03T07:28:02.706Z,101092.00
2022-08-03T07:30:29.173Z,101118.66
2022-08-03T07:32:55.718Z,101060.56
2022-08-03T07:35:25.184Z,101121.81
2022-08-03T07:37:54.730Z,100991.34
2022-08-03T07:40:22.140Z,101120.84
2022-08-03T07:42:48.773Z,101145.69
2022-08-03T07:45:21.442Z,101029.69
2022-08-03T07:47:53.580Z,101123.84
2022-08-03T07:50:20.708Z,101011.28
2022-08-03T07:52:50.742Z,101118.84
2022-08-03T07:55:25.672Z,101060.47
2022-08-03T07:58:06.702Z,101140.22
2022-08-03T08:00:33.970Z,101124.59
2022-08-03T08:03:00.360Z,101068.25
2022-08-03T08:05:27.902Z,101152.44
2022-08-03T08:07:54.441Z,101123.47
2022-08-03T08:10:20.917Z,101134.03
2022-08-03T08:12:48.253Z,101130.56
2022-08-03T08:15:14.740Z,101140.56
2022-08-03T08:17:49.885Z,101111.06
2022-08-03T08:20:27.677Z,101068.97
2022-08-03T08:23:09.599Z,101122.69
2022-08-03T08:25:53.855Z,101153.19
2022-08-03T08:28:32.935Z,101133.41
2022-08-03T08:31:00.760Z,101133.78
2022-08-03T08:33:37.422Z,101086.28
2022-08-03T08:36:13.314Z,101040.88
2022-08-03T08:38:42.640Z,101100.28
2022-08-03T08:41:10.775Z,101118.06
2022-08-03T08:43:37.422Z,101083.28
2022-08-03T08:46:05.100Z,101093.44
2022-08-03T08:48:31.994Z,101111.00
2022-08-03T08:51:00.857Z,101099.84
2022-08-03T08:53:29.195Z,101092.31
2022-08-03T08:56:00.926Z,101109.91
2022-08-03T08:58:36.934Z,101096.59
2022-08-03T09:01:04.033Z,101106.84
2022-08-03T09:03:33.878Z,101048.47
2022-08-03T09:06:01.146Z,101123.47
2022-08-03T09:08:29.177Z,101114.56
2022-08-03T09:10:55.641Z,101096.69
2022-08-03T09:13:22.558Z,101130.53
2022-08-03T09:15:53.328Z,101081.34
2022-08-03T09:18:33.344Z,101012.88
2022-08-03T09:21:31.105Z,101128.97
2022-08-03T09:24:04.202Z,101122.56
2022-08-03T09:26:33.152Z,101124.31
2022-08-03T09:29:11.193Z,101136.44
2022-08-03T09:31:43.608Z,101133.19
2022-08-03T09:34:16.653Z,101083.25
2022-08-03T09:36:51.621Z,101073.63
2022-08-03T09:39:40.478Z,101078.28
2022-08-03T09:42:18.379Z,101123.47
2022-08-03T09:44:50.457Z,101088.56
2022-08-03T09:47:31.151Z,101123.13
2022-08-03T09:50:01.883Z,101085.78
2022-08-03T09:52:52.349Z,101063.25
2022-08-03T09:56:34.643Z,100956.75
2022-08-03T09:58:10.263Z,101054.25
2022-08-03T10:01:05.362Z,101093.91
2022-08-03T10:03:35.013Z,101123.38
2022-08-03T10:06:16.413Z,101073.47
2022-08-03T10:08:42.784Z,101035.94
2022-08-03T10:11:09.238Z,101044.03
2022-08-03T10:13:37.089Z,101130.84
2022-08-03T10:16:22.769Z,101122.13
2022-08-03T10:18:50.706Z,101073.06
2022-08-03T10:21:20.174Z,101131.28
2022-08-03T10:23:47.253Z,101104.13
2022-08-03T10:26:18.953Z,101129.19
2022-08-03T10:28:50.378Z,101080.72
2022-08-03T10:31:20.471Z,101087.19
2022-08-03T10:33:53.025Z,101123.75
2022-08-03T10:36:24.401Z,101079.28
2022-08-03T10:38:53.812Z,101129.16
2022-08-03T10:41:22.499Z,101132.34
2022-08-03T10:44:08.892Z,101126.28
2022-08-03T10:46:44.180Z,101104.34
2022-08-03T10:49:14.935Z,101003.34
2022-08-03T10:51:44.224Z,101050.03
2022-08-03T10:54:58.796Z,101115.13
2022-08-03T10:57:58.329Z,101091.53
2022-08-03T11:00:27.664Z,101061.69
2022-08-03T11:03:16.636Z,101083.38
2022-08-03T11:05:47.263Z,101116.22
2022-08-03T11:08:21.633Z,101085.50
2022-08-03T11:10:50.244Z,101105.81
2022-08-03T11:13:19.557Z,101090.44
2022-08-03T11:15:47.594Z,101078.47
2022-08-03T11:18:15.062Z,101108.63
2022-08-03T11:20:57.761Z,101112.44
2022-08-03T11:24:04.660Z,101116.28
2022-08-03T11:26:30.778Z,101104.88
2022-08-03T11:29:28.942Z,101112.19
2022-08-03T11:31:58.735Z,101030.59
2022-08-03T11:34:25.387Z,101047.72
2022-08-03T11:37:18.368Z,101102.53
2022-08-03T11:39:47.429Z,101103.34
2022-08-03T11:42:23.053Z,101117.75
2022-08-03T11:45:09.050Z,101076.88
2022-08-03T11:47:50.751Z,101095.44
2022-08-03T11:50:18.995Z,101112.19
2022-08-03T11:52:45.574Z,101119.47
2022-08-03T11:55:14.177Z,101047.50
2022-08-03T11:59:15.142Z,101066.66
2022-08-03T12:00:30.390Z,101117.25
2022-08-03T12:03:10.455Z,101114.31
2022-08-03T12:05:57.521Z,101063.03
2022-08-03T12:08:27.109Z,101109.59
2022-08-03T12:10:55.425Z,101108.00
2022-08-03T12:14:44.750Z,101104.31
2022-08-03T12:16:09.771Z,101050.22
2022-08-03T12:18:36.636Z,101060.53
2022-08-03T12:21:06.721Z,101095.72
2022-08-03T12:23:37.672Z,101087.09
2022-08-03T12:26:09.801Z,101052.22
2022-08-03T12:28:38.354Z,101005.69
2022-08-03T12:31:07.537Z,101110.84
2022-08-03T12:34:04.817Z,101106.34
2022-08-03T12:36:33.251Z,101079.88
2022-08-03T12:39:03.809Z,101017.91
2022-08-03T12:41:37.383Z,101100.19
2022-08-03T12:44:05.463Z,101053.53
2022-08-03T12:46:42.713Z,101087.25
2022-08-03T12:49:18.867Z,101065.72
2022-08-03T12:51:45.321Z,101103.91
2022-08-03T12:54:25.144Z,101045.22
2022-08-03T12:57:02.177Z,101109.38
2022-08-03T12:59:34.707Z,101104.13
2022-08-03T13:02:02.480Z,101083.53
2022-08-03T13:04:33.691Z,101109.53
2022-08-03T13:07:14.358Z,101131.47
2022-08-03T13:09:56.515Z,101108.56
2022-08-03T13:12:27.644Z,101080.16
2022-08-03T13:15:00.905Z,101110.75
2022-08-03T13:17:27.870Z,101052.00
2022-08-03T13:19:54.885Z,101104.19
2022-08-03T13:22:27.133Z,101053.75
2022-08-03T13:24:57.443Z,101088.59
2022-08-03T13:28:04.379Z,101070.53
2022-08-03T13:30:12.040Z,101045.88
2022-08-03T13:32:39.012Z,101105.09
2022-08-03T13:35:06.566Z,101041.47
2022-08-03T13:37:33.166Z,101102.06
2022-08-03T13:40:02.924Z,101088.16
2022-08-03T13:42:32.109Z,101069.63
2022-08-03T13:45:00.292Z,100993.69
2022-08-03T13:47:27.983Z,101067.50
2022-08-03T13:49:59.918Z,101102.53
2022-08-03T13:52:37.545Z,101084.22
2022-08-03T13:55:06.617Z,101069.81
2022-08-03T13:58:05.986Z,101072.03
2022-08-03T14:00:28.098Z,101058.31
2022-08-03T14:03:10.818Z,101086.34
2022-08-03T14:05:40.987Z,101082.69
2022-08-03T14:08:07.953Z,101067.50
2022-08-03T14:10:36.450Z,101013.28
2022-08-03T14:13:04.425Z,100985.41
2022-08-03T14:15:31.297Z,101046.44
2022-08-03T14:17:59.994Z,101078.28
2022-08-03T14:20:36.762Z,101034.75
2022-08-03T14:23:06.909Z,101082.72
2022-08-03T14:25:43.440Z,101017.34
2022-08-03T14:28:23.073Z,101027.25
2022-08-03T14:30:51.440Z,101041.31
2022-08-03T14:33:18.169Z,101044.97
2022-08-03T14:35:44.582Z,101019.69
2022-08-03T14:38:11.232Z,101010.81
2022-08-03T14:40:37.770Z,100907.09
2022-08-03T14:43:04.215Z,101040.94
2022-08-03T14:45:30.626Z,101055.09
2022-08-03T14:50:10.361Z,101002.63
2022-08-03T14:50:51.011Z,100926.94
2022-08-03T14:53:19.425Z,101019.56
2022-08-03T14:55:49.762Z,100914.88
2022-08-03T14:58:25.332Z,101048.34
2022-08-03T15:00:54.998Z,101006.56
2022-08-03T15:03:28.312Z,101032.69
2022-08-03T15:05:56.479Z,100992.38
2022-08-03T15:08:24.500Z,101045.63
2022-08-03T15:10:51.952Z,100979.38
2022-08-03T15:13:19.730Z,101042.13
2022-08-03T15:15:47.574Z,101034.41
2022-08-03T15:18:13.950Z,101010.09
2022-08-03T15:20:45.802Z,101047.09
2022-08-03T15:23:13.812Z,101036.97
2022-08-03T15:26:29.083Z,100939.59
2022-08-03T15:28:26.782Z,101029.91
2022-08-03T15:30:56.329Z,101008.53
2022-08-03T15:33:22.790Z,101039.53
2022-08-03T15:35:49.838Z,101025.66
2022-08-03T15:38:16.381Z,101014.81
2022-08-03T15:40:45.522Z,101043.59
2022-08-03T15:43:12.203Z,100978.91
2022-08-03T15:45:40.446Z,101019.34
2022-08-03T15:48:08.532Z,100965.72
2022-08-03T15:50:35.132Z,100982.44
2022-08-03T15:53:04.744Z,101016.63
2022-08-03T15:55:31.491Z,101039.38
2022-08-03T15:59:09.577Z,101046.72
2022-08-03T16:00:44.797Z,101001.19
2022-08-03T16:03:11.334Z,101022.09
2022-08-03T16:05:38.230Z,101031.50
2022-08-03T16:08:07.088Z,100948.69
2022-08-03T16:10:36.659Z,101038.00
2022-08-03T16:13:03.167Z,100994.69
2022-08-03T16:15:29.582Z,100997.44
2022-08-03T16:17:56.110Z,101010.47
2022-08-03T16:20:31.295Z,100992.59
2022-08-03T16:23:10.834Z,101011.00
2022-08-03T16:25:39.238Z,100970.88
2022-08-03T16:28:13.970Z,100895.41
2022-08-03T16:30:42.726Z,101001.38
2022-08-03T16:33:09.508Z,100968.75
2022-08-03T16:35:36.074Z,101031.78
2022-08-03T16:38:07.839Z,100983.66
2022-08-03T16:40:36.421Z,100930.31
2022-08-03T16:43:18.503Z,101005.63
2022-08-03T16:45:47.245Z,101020.63
2022-08-03T16:48:15.260Z,100976.03
2022-08-03T16:50:43.033Z,101028.06
2022-08-03T16:53:12.821Z,100974.44
2022-08-03T16:55:51.854Z,100986.19
2022-08-03T16:58:34.448Z,100982.00
2022-08-03T17:01:21.805Z,100932.22
2022-08-03T17:04:02.564Z,100979.31
2022-08-03T17:06:34.329Z,101036.06
2022-08-03T17:09:02.131Z,100943.47
2022-08-03T17:11:30.028Z,101033.34
2022-08-03T17:13:59.965Z,100975.38
2022-08-03T17:16:26.962Z,100973.50
2022-08-03T17:19:02.576Z,101010.41
2022-08-03T17:21:33.327Z,101005.63
2022-08-03T17:24:20.546Z,100995.22
2022-08-03T17:26:50.942Z,100975.41
2022-08-03T17:29:22.891Z,101025.06
2022-08-03T17:31:52.845Z,101020.47
2022-08-03T17:34:20.709Z,101031.34
2022-08-03T17:37:05.509Z,100927.66
2022-08-03T17:39:57.217Z,100960.00
2022-08-03T17:42:31.026Z,101020.06
2022-08-03T17:45:06.727Z,101041.13
2022-08-03T17:47:41.463Z,100978.97
2022-08-03T17:50:24.174Z,101012.56
2022-08-03T17:52:59.236Z,101009.44
2022-08-03T17:55:56.381Z,100980.59
2022-08-03T17:58:25.127Z,100990.81
2022-08-03T18:02:02.719Z,101030.91
2022-08-03T18:04:11.049Z,101010.84
2022-08-03T18:06:56.251Z,100988.94
2022-08-03T18:10:05.988Z,100979.31
2022-08-03T18:12:18.512Z,101013.94
2022-08-03T18:14:57.626Z,100980.13
2022-08-03T18:17:55.063Z,101037.47
2022-08-03T18:20:32.725Z,100959.78
2022-08-03T18:23:04.631Z,101038.28
2022-08-03T18:25:42.684Z,101030.97
2022-08-03T18:28:14.470Z,100965.75
2022-08-03T18:31:12.081Z,101043.78
2022-08-03T18:34:32.271Z,101035.63
2022-08-03T18:36:30.116Z,101010.69
2022-08-03T18:38:58.792Z,101045.50
2022-08-03T18:41:33.230Z,101000.94
2022-08-03T18:44:08.566Z,101043.41
2022-08-03T18:47:16.240Z,100944.16
2022-08-03T18:53:16.514Z,101047.84
2022-08-03T18:55:59.318Z,101006.69
2022-08-03T18:58:39.262Z,101064.75
2022-08-03T19:01:59.693Z,101062.16
2022-08-03T19:04:46.381Z,101043.06
2022-08-03T19:07:36.163Z,101003.09
2022-08-03T19:10:09.325Z,101058.38
2022-08-03T19:12:52.316Z,101022.19
2022-08-03T19:15:21.257Z,100991.75
2022-08-03T19:18:07.349Z,101047.41
2022-08-03T19:20:37.593Z,101052.94
2022-08-03T19:23:04.362Z,101071.75
2022-08-03T19:25:40.297Z,101013.34
2022-08-03T19:28:07.613Z,101073.63
2022-08-03T19:30:38.919Z,101028.75
2022-08-03T19:33:09.116Z,101051.78
2022-08-03T19:35:51.655Z,100945.94
2022-08-03T19:38:29.048Z,101085.47
2022-08-03T19:41:02.083Z,101068.44
2022-08-03T19:43:53.294Z,100916.56
2022-08-03T19:46:30.807Z,101004.53
2022-08-03T19:49:14.754Z,101089.97
2022-08-03T19:52:02.266Z,101085.31
2022-08-03T19:54:36.560Z,100928.03
2022-08-03T19:57:17.487Z,101076.13
2022-08-03T19:59:49.835Z,100973.38
2022-08-03T20:02:26.051Z,101061.06
2022-08-03T20:04:59.759Z,101072.16
2022-08-03T20:07:27.441Z,100961.19
2022-08-03T20:09:56.616Z,101077.94
2022-08-03T20:12:26.657Z,101086.53
2022-08-03T20:14:57.262Z,101036.38
2022-08-03T20:17:56.087Z,101050.31
2022-08-03T20:20:10.957Z,100960.56
2022-08-03T20:22:42.042Z,101018.16
2022-08-03T20:25:11.537Z,101002.38
2022-08-03T20:28:03.621Z,101041.88
2022-08-03T20:30:33.522Z,100950.91
2022-08-03T20:33:00.015Z,100924.56
2022-08-03T20:35:26.966Z,101002.94
2022-08-03T20:37:54.725Z,100944.03
2022-08-03T20:40:22.249Z,101018.25
2022-08-03T20:42:55.127Z,101073.63
2022-08-03T20:46:01.103Z,101069.78
2022-08-03T20:48:09.899Z,101079.50
2022-08-03T20:50:38.292Z,100981.63
2022-08-03T20:53:06.429Z,101009.66
2022-08-03T20:55:47.865Z,101068.78
2022-08-03T20:58:20.220Z,100996.19
2022-08-03T21:00:51.516Z,101036.69
2022-08-03T21:03:18.750Z,101032.66
2022-08-03T21:05:51.853Z,100985.28
2022-08-03T21:08:22.601Z,101031.97
2022-08-03T21:10:56.296Z,101028.59
2022-08-03T21:13:00.574Z,101053.91
2022-08-03T21:13:43.273Z,100890.81
2022-08-03T21:16:30.113Z,101022.09
2022-08-03T21:21:44.252Z,101061.31
2022-08-03T21:24:13.395Z,101016.31
2022-08-03T21:26:41.606Z,101032.25
2022-08-03T21:29:08.756Z,101031.88
2022-08-03T21:31:36.002Z,101051.03
2022-08-03T21:34:05.222Z,101007.63
2022-08-03T21:36:42.910Z,101042.97
2022-08-03T21:39:18.971Z,101025.75
2022-08-03T21:41:45.614Z,101044.28
2022-08-03T21:44:12.401Z,100970.81
2022-08-03T21:46:45.685Z,100934.47
2022-08-03T21:50:07.322Z,101042.34
2022-08-03T21:52:05.963Z,100970.06
2022-08-03T21:54:41.704Z,100987.03
2022-08-03T21:57:19.552Z,101021.69
2022-08-03T21:59:54.232Z,100982.50
2022-08-03T22:02:25.303Z,101025.84
2022-08-03T22:05:05.031Z,101022.47
2022-08-03T22:07:33.425Z,100899.91
2022-08-03T22:10:01.888Z,101027.81
2022-08-03T22:12:30.434Z,100989.91
2022-08-03T22:15:02.387Z,100962.38
2022-08-03T22:17:55.126Z,101027.75
2022-08-03T22:20:28.544Z,101025.72
2022-08-03T22:23:06.572Z,100999.88
2022-08-03T22:25:36.381Z,100930.81
2022-08-03T22:28:08.775Z,101027.69
2022-08-03T22:30:35.754Z,101033.47
2022-08-03T22:33:05.566Z,101023.06
2022-08-03T22:35:47.640Z,101028.09
2022-08-03T22:38:15.795Z,101013.72
2022-08-03T22:40:42.778Z,100883.16
2022-08-03T22:43:09.326Z,101017.13
2022-08-03T22:46:07.242Z,101018.53
2022-08-03T22:48:22.981Z,101023.22
2022-08-03T22:50:50.062Z,100931.13
2022-08-03T22:53:21.501Z,101026.06
2022-08-03T22:55:48.765Z,100997.13
2022-08-03T22:58:16.130Z,101012.69
2022-08-03T23:01:12.907Z,100975.97
2022-08-03T23:03:59.830Z,101017.88
2022-08-03T23:06:36.491Z,100939.34
2022-08-03T23:09:12.817Z,101030.19
2022-08-03T23:11:45.618Z,100960.50
2022-08-03T23:14:15.263Z,100965.78
2022-08-03T23:16:43.239Z,100990.19
2022-08-03T23:19:17.216Z,100966.41
2022-08-03T23:22:02.351Z,101008.88
2022-08-03T23:24:33.998Z,100897.31
2022-08-03T23:27:03.498Z,100945.94
2022-08-03T23:29:31.031Z,100987.28
2022-08-03T23:31:57.988Z,100989.25
2022-08-03T23:34:43.440Z,100919.25
2022-08-03T23:37:12.835Z,100993.56
2022-08-03T23:39:40.353Z,100989.19
2022-08-03T23:42:06.935Z,100958.22
2022-08-03T23:44:36.663Z,100937.66
2022-08-03T23:47:03.106Z,100975.66
2022-08-03T23:49:29.539Z,100930.31
2022-08-03T23:52:03.674Z,100981.09
2022-08-03T23:55:04.158Z,100979.72
2022-08-03T23:57:51.755Z,100968.94
